Language: 


Des rapports , des résumés tant et plus, au choix de chacun....


Données statistiques de la station
Quotidien Rapport Janvier 6, 2017 Unités:  Métrique    Anglais   les deux
« Précédent Jour
Suivant Jour »
Quotidien Hebdomadaire Mensuel Annuel Actuel
  Haut: Bas: Moyen:
Température: 2.6 °C -2.8 °C -0.2 °C
Pt de rosée: -1.1 °C -3.7 °C -2.6 °C
Humidité: 95 % 77 % 85 %
Vitesse du vent: 16.3 km/h 0.0 km/h 6.4 km/h
Rafales: 32.3 km/h - -
Vent:- - South
Pression: 1038.8 hPa 1035.1 hPa -
Précipitation: 0.0 mm    
Historical Graphs
 
 
Données statistiques pour Janvier 6, 2017
Heure Température Point de rosée Pression Vent Vitesse du vent Refales Humidité Pluie (taux horaire)
00:09 -1.9 °C -2.8 °C 1037.1 hPa ENE 2.6 km/h 6.4 km/h 93 % 0.0 mm
00:19 -1.9 °C -2.8 °C 1037.1 hPa ESE 4.3 km/h 4.3 km/h 93 % 0.0 mm
00:29 -1.9 °C -2.8 °C 1037.1 hPa East 3.2 km/h 4.7 km/h 93 % 0.0 mm
00:39 -1.9 °C -2.8 °C 1037.1 hPa ESE 6.1 km/h 6.1 km/h 93 % 0.0 mm
00:49 -1.9 °C -2.8 °C 1037.1 hPa NE 5.0 km/h 6.9 km/h 93 % 0.0 mm
00:59 -1.9 °C -2.8 °C 1037.1 hPa East 4.3 km/h 6.1 km/h 93 % 0.0 mm
01:09 -1.9 °C -2.8 °C 1037.1 hPa East 2.6 km/h 6.1 km/h 93 % 0.0 mm
01:19 -1.9 °C -2.8 °C 1037.1 hPa ESE 3.5 km/h 5.5 km/h 93 % 0.0 mm
01:29 -1.9 °C -2.8 °C 1037.1 hPa Calm   4.7 km/h 93 % 0.0 mm
01:39 -1.9 °C -2.8 °C 1037.1 hPa Calm   2.6 km/h 93 % 0.0 mm
01:49 -1.9 °C -2.8 °C 1037.1 hPa Calm     93 % 0.0 mm
01:59 -1.9 °C -2.8 °C 1037.1 hPa Calm     93 % 0.0 mm
07:19 -2.7 °C -3.7 °C 1038.1 hPa Calm   4.0 km/h 93 % 0.0 mm
07:29 -2.7 °C -3.7 °C 1038.1 hPa Calm     93 % 0.0 mm
07:39 -2.7 °C -3.7 °C 1038.1 hPa Calm     93 % 0.0 mm
07:49 -2.7 °C -3.7 °C 1038.1 hPa Calm     93 % 0.0 mm
07:59 -2.7 °C -3.7 °C 1038.1 hPa SE 5.0 km/h 5.8 km/h 93 % 0.0 mm
08:09 -2.7 °C -3.7 °C 1038.1 hPa Calm   4.7 km/h 93 % 0.0 mm
08:19 -2.7 °C -3.7 °C 1038.1 hPa Calm   4.7 km/h 93 % 0.0 mm
08:29 -2.7 °C -3.7 °C 1038.8 hPa Calm   4.0 km/h 93 % 0.0 mm
08:39 -2.7 °C -3.7 °C 1038.8 hPa South 4.0 km/h 5.5 km/h 93 % 0.0 mm
08:49 -2.8 °C -3.6 °C 1038.8 hPa South 3.2 km/h 5.0 km/h 95 % 0.0 mm
08:59 -2.8 °C -3.7 °C 1038.8 hPa Calm   4.0 km/h 94 % 0.0 mm
09:09 -2.8 °C -3.7 °C 1038.8 hPa SSE 3.2 km/h 6.1 km/h 94 % 0.0 mm
09:19 -2.8 °C -3.7 °C 1038.8 hPa SE 2.6 km/h 4.3 km/h 94 % 0.0 mm
09:29 -2.7 °C -3.3 °C 1038.8 hPa SSE 3.2 km/h 6.4 km/h 95 % 0.0 mm
09:39 -2.7 °C -3.3 °C 1038.8 hPa Calm   6.4 km/h 95 % 0.0 mm
09:49 -2.7 °C -3.3 °C 1038.8 hPa South 1.8 km/h 4.3 km/h 95 % 0.0 mm
09:59 -2.2 °C -2.8 °C 1038.8 hPa South 4.3 km/h 5.5 km/h 95 % 0.0 mm
10:09 -1.8 °C -2.6 °C 1038.1 hPa South 4.7 km/h 6.1 km/h 94 % 0.0 mm
10:19 -1.8 °C -2.6 °C 1038.1 hPa South 5.0 km/h 8.7 km/h 94 % 0.0 mm
10:29 -1.8 °C -2.6 °C 1038.8 hPa SSW 9.7 km/h 9.7 km/h 94 % 0.0 mm
10:39 -1.8 °C -2.6 °C 1038.8 hPa Calm   9.3 km/h 94 % 0.0 mm
10:49 -1.8 °C -2.6 °C 1038.8 hPa South 6.9 km/h 10.5 km/h 94 % 0.0 mm
10:59 -1.8 °C -2.6 °C 1038.8 hPa South 5.8 km/h 9.0 km/h 94 % 0.0 mm
11:09 -1.8 °C -2.6 °C 1038.8 hPa South 5.0 km/h 9.3 km/h 94 % 0.0 mm
11:19 -1.8 °C -2.6 °C 1038.8 hPa South 6.9 km/h 9.0 km/h 94 % 0.0 mm
11:29 -1.8 °C -2.6 °C 1038.8 hPa South 6.1 km/h 9.3 km/h 94 % 0.0 mm
11:39 -1.8 °C -2.6 °C 1038.8 hPa South 6.1 km/h 9.3 km/h 94 % 0.0 mm
11:49 -1.8 °C -2.6 °C 1038.8 hPa SSE 9.0 km/h 11.6 km/h 94 % 0.0 mm
11:59 -1.8 °C -2.6 °C 1038.8 hPa SSW 6.1 km/h 13.0 km/h 94 % 0.0 mm
12:09 2.1 °C -1.2 °C 1038.8 hPa SSW 10.1 km/h 10.5 km/h 79 % 0.0 mm
12:19 2.1 °C -1.2 °C 1038.8 hPa South 6.9 km/h 10.1 km/h 79 % 0.0 mm
12:29 2.3 °C -1.1 °C 1038.1 hPa Calm   9.7 km/h 78 % 0.0 mm
12:39 2.4 °C -1.2 °C 1038.1 hPa South 6.1 km/h 9.7 km/h 77 % 0.0 mm
12:49 2.6 °C -1.1 °C 1038.1 hPa South 6.1 km/h 11.6 km/h 77 % 0.0 mm
12:59 2.6 °C -1.1 °C 1038.1 hPa SSW 10.1 km/h 10.1 km/h 77 % 0.0 mm
13:09 2.6 °C -1.1 °C 1038.1 hPa South 5.5 km/h 11.1 km/h 77 % 0.0 mm
13:19 2.6 °C -1.1 °C 1038.1 hPa SW 5.8 km/h 11.6 km/h 77 % 0.0 mm
13:29 2.6 °C -1.1 °C 1037.1 hPa South 5.0 km/h 31.7 km/h 77 % 0.0 mm
13:39 2.6 °C -1.1 °C 1037.1 hPa South 6.9 km/h 11.6 km/h 77 % 0.0 mm
13:49 2.6 °C -1.1 °C 1037.1 hPa SSW 6.4 km/h 9.7 km/h 77 % 0.0 mm
13:59 2.6 °C -1.1 °C 1036.1 hPa SSW 9.7 km/h 9.7 km/h 77 % 0.0 mm
14:09 2.6 °C -1.1 °C 1037.1 hPa South 8.7 km/h 11.9 km/h 77 % 0.0 mm
14:19 2.6 °C -1.1 °C 1037.1 hPa South 2.6 km/h 9.7 km/h 77 % 0.0 mm
14:29 2.6 °C -1.1 °C 1038.1 hPa SSW 6.9 km/h 15.4 km/h 77 % 0.0 mm
14:39 2.6 °C -1.1 °C 1038.1 hPa SSE 4.7 km/h 32.3 km/h 77 % 0.0 mm
14:49 2.6 °C -1.1 °C 1038.1 hPa SSW 9.3 km/h 13.7 km/h 77 % 0.0 mm
14:59 2.6 °C -1.1 °C 1037.1 hPa South 9.3 km/h 11.9 km/h 77 % 0.0 mm
15:09 2.6 °C -1.1 °C 1037.1 hPa South 5.0 km/h 11.6 km/h 77 % 0.0 mm
15:19 2.6 °C -1.1 °C 1037.1 hPa South 9.7 km/h 10.1 km/h 77 % 0.0 mm
15:29 2.6 °C -1.1 °C 1037.1 hPa SSE 6.4 km/h 12.6 km/h 77 % 0.0 mm
15:39 2.6 °C -1.1 °C 1037.1 hPa South 9.3 km/h 9.7 km/h 77 % 0.0 mm
15:49 2.6 °C -1.1 °C 1037.1 hPa SSW 9.7 km/h 9.7 km/h 77 % 0.0 mm
15:59 2.6 °C -1.1 °C 1037.1 hPa South 16.3 km/h 16.3 km/h 77 % 0.0 mm
16:09 2.6 °C -1.1 °C 1037.1 hPa South 13.0 km/h 13.0 km/h 77 % 0.0 mm
16:19 2.6 °C -1.1 °C 1037.1 hPa South 10.1 km/h 12.2 km/h 77 % 0.0 mm
16:29 2.6 °C -1.1 °C 1037.1 hPa South 4.7 km/h 11.9 km/h 77 % 0.0 mm
16:39 2.6 °C -1.1 °C 1037.1 hPa South 4.3 km/h 8.7 km/h 77 % 0.0 mm
16:49 2.6 °C -1.1 °C 1037.1 hPa South 9.7 km/h 14.8 km/h 77 % 0.0 mm
16:59 2.6 °C -1.1 °C 1038.1 hPa SSE 4.7 km/h 12.6 km/h 77 % 0.0 mm
17:09 2.6 °C -1.1 °C 1037.1 hPa SSW 4.7 km/h 10.5 km/h 77 % 0.0 mm
17:19 2.6 °C -1.1 °C 1037.1 hPa SSW 8.7 km/h 9.7 km/h 77 % 0.0 mm
17:29 2.6 °C -1.1 °C 1036.1 hPa Calm   11.1 km/h 77 % 0.0 mm
17:39 0.0 °C -3.2 °C 1037.1 hPa SSW 8.7 km/h 11.6 km/h 79 % 0.0 mm
17:49 -0.2 °C -3.4 °C 1037.1 hPa South 13.7 km/h 13.7 km/h 79 % 0.0 mm
17:59 -0.3 °C -3.3 °C 1037.1 hPa South 8.7 km/h 14.0 km/h 80 % 0.0 mm
18:09 -0.4 °C -3.3 °C 1037.1 hPa South 5.8 km/h 10.5 km/h 81 % 0.0 mm
18:19 -0.4 °C -3.3 °C 1037.1 hPa South 7.9 km/h 9.7 km/h 81 % 0.0 mm
18:29 -0.4 °C -3.3 °C 1037.1 hPa South 6.4 km/h 10.5 km/h 81 % 0.0 mm
18:39 -0.4 °C -3.3 °C 1037.1 hPa South 13.7 km/h 13.7 km/h 81 % 0.0 mm
18:49 -0.4 °C -3.3 °C 1037.1 hPa South 8.7 km/h 13.0 km/h 81 % 0.0 mm
18:59 -0.4 °C -3.3 °C 1036.1 hPa SSW 6.1 km/h 11.9 km/h 81 % 0.0 mm
19:09 -0.4 °C -3.3 °C 1037.1 hPa South 9.0 km/h 13.0 km/h 81 % 0.0 mm
19:19 -0.4 °C -3.3 °C 1037.1 hPa SSW 9.3 km/h 13.7 km/h 81 % 0.0 mm
19:29 -0.4 °C -3.3 °C 1037.1 hPa South 6.9 km/h 12.2 km/h 81 % 0.0 mm
19:40 -0.4 °C -3.3 °C 1037.1 hPa SSW 5.8 km/h 13.7 km/h 81 % 0.0 mm
19:50 -0.4 °C -3.3 °C 1037.1 hPa South 10.1 km/h 12.6 km/h 81 % 0.0 mm
20:00 -0.4 °C -3.3 °C 1037.1 hPa South 13.0 km/h 13.0 km/h 81 % 0.0 mm
20:10 -0.4 °C -3.3 °C 1037.1 hPa South 7.6 km/h 13.0 km/h 81 % 0.0 mm
20:20 -0.4 °C -3.3 °C 1037.1 hPa SW 6.4 km/h 13.7 km/h 81 % 0.0 mm
20:30 -0.4 °C -3.3 °C 1037.1 hPa South 12.6 km/h 15.4 km/h 81 % 0.0 mm
20:40 -0.4 °C -3.3 °C 1037.1 hPa South 6.1 km/h 12.6 km/h 81 % 0.0 mm
20:50 -0.4 °C -3.3 °C 1037.1 hPa SW 5.5 km/h 16.9 km/h 81 % 0.0 mm
21:00 -0.4 °C -3.3 °C 1036.1 hPa SSW 8.7 km/h 13.0 km/h 81 % 0.0 mm
21:10 -0.4 °C -3.3 °C 1036.1 hPa South 8.7 km/h 16.9 km/h 81 % 0.0 mm
21:20 -0.4 °C -3.3 °C 1036.1 hPa South 13.7 km/h 16.3 km/h 81 % 0.0 mm
21:30 -0.4 °C -3.3 °C 1036.1 hPa SSW 8.7 km/h 16.9 km/h 81 % 0.0 mm
21:40 -0.4 °C -3.3 °C 1036.1 hPa SSW 5.5 km/h 15.8 km/h 81 % 0.0 mm
21:50 -0.4 °C -3.3 °C 1036.1 hPa South 11.6 km/h 14.8 km/h 81 % 0.0 mm
22:00 -0.4 °C -3.3 °C 1036.1 hPa SSW 9.3 km/h 13.7 km/h 81 % 0.0 mm
22:10 -0.4 °C -3.3 °C 1035.1 hPa South 5.8 km/h 15.4 km/h 81 % 0.0 mm
22:20 -0.4 °C -3.1 °C 1035.1 hPa South 12.6 km/h 15.8 km/h 82 % 0.0 mm
22:30 -0.5 °C -3.2 °C 1035.1 hPa South 10.1 km/h 13.7 km/h 82 % 0.0 mm
22:40 -0.5 °C -3.2 °C 1035.1 hPa South 12.6 km/h 14.0 km/h 82 % 0.0 mm
22:50 -0.5 °C -3.2 °C 1035.1 hPa South 14.0 km/h 19.5 km/h 82 % 0.0 mm
23:00 -0.5 °C -3.2 °C 1035.1 hPa South 7.9 km/h 15.8 km/h 82 % 0.0 mm
23:10 -0.5 °C -3.3 °C 1035.1 hPa SSW 10.1 km/h 16.3 km/h 81 % 0.0 mm
23:20 -0.5 °C -3.3 °C 1035.1 hPa SSW 6.9 km/h 16.6 km/h 81 % 0.0 mm
23:30 -0.4 °C -3.3 °C 1035.1 hPa SSW 13.0 km/h 13.7 km/h 81 % 0.0 mm
23:40 -0.4 °C -3.3 °C 1035.1 hPa South 9.0 km/h 14.0 km/h 81 % 0.0 mm
23:50 -0.4 °C -3.3 °C 1035.1 hPa SSW 12.6 km/h 14.3 km/h 81 % 0.0 mm
Le Gheer Warneton
Courtoisie de Weather Underground - 1.25 mb

Mise a jour : 17-12-17 03:27:12
Généré par Cumulus 1.9.4 (1099)